Time;durP1;ratioP1;P1;durP2;ratioP2;P2;SDS_P1;SDS_P2;PMS_P1;PMS_P2;Temp;Humidity;BMP_temperature;BMP_pressure;BME280_temperature;BME280_humidity;BME280_pressure;Samples;Min_cycle;Max_cycle;Signal;HPM_P1;HPM_P2
2023/12/29 00:00:22;;;;;;;;;;;12.20;56.70;;;10.92;59.61;100617.59;12251875;19;19919;-83
2023/12/29 00:04:24;;;;;;;;;;;12.20;56.90;;;11.00;59.78;100625.84;12249671;19;19978;-83
2023/12/29 00:08:26;;;;;;;;;;;12.30;56.80;;;10.96;59.61;100619.94;12255048;19;19915;-83
2023/12/29 00:12:27;;;;;;;;;;;12.30;56.90;;;10.96;59.71;100619.94;12253531;19;20342;-83
2023/12/29 00:16:29;;;;;;;;;;;12.30;56.80;;;10.72;59.68;100579.56;12255797;19;20021;-83
2023/12/29 00:20:31;;;;;;;;;;;12.30;56.50;;;10.84;59.58;100589.31;12252234;19;19927;-84
2023/12/29 00:24:33;;;;;;;;;;;12.30;56.70;;;10.68;59.64;100558.03;12248868;19;19971;-84
2023/12/29 00:28:36;;;;;;;;;;;12.30;56.90;;;10.96;59.51;100595.56;12251299;19;19915;-83
2023/12/29 00:32:38;;;;;;;;;;;12.20;56.60;;;10.97;59.57;100579.00;12247537;19;19918;-84
2023/12/29 00:36:40;;;;;;;;;;;12.30;56.80;;;11.00;59.49;100579.63;12250167;19;19922;-83
2023/12/29 00:40:41;;;;;;;;;;;12.30;56.70;;;10.75;59.60;100528.00;12249544;19;19939;-84
2023/12/29 00:44:43;;;;;;;;;;;12.30;56.60;;;10.89;59.58;100555.94;12245817;19;19926;-83
2023/12/29 00:48:46;;;;;;;;;;;12.30;56.70;;;10.92;59.71;100563.56;12249801;19;19919;-84
2023/12/29 00:52:47;;;;;;;;;;;12.30;56.40;;;10.77;59.71;100530.50;12247446;19;20257;-83
2023/12/29 00:56:49;;;;;;;;;;;12.40;56.90;;;10.91;59.72;100551.47;12249305;19;19982;-83
2023/12/29 01:00:51;;;;;;;;;;;12.20;56.50;;;10.78;59.54;100529.59;12248068;19;19946;-83
2023/12/29 01:04:52;;;;;;;;;;;12.30;56.70;;;10.96;59.49;100551.16;12247541;19;19930;-84
2023/12/29 01:08:53;;;;;;;;;;;12.30;56.70;;;11.00;59.76;100566.56;12248627;19;19915;-84
2023/12/29 01:12:55;;;;;;;;;;;12.30;56.70;;;11.02;59.64;100562.09;12244553;19;19932;-83
2023/12/29 01:16:56;;;;;;;;;;;12.30;56.50;;;11.00;59.75;100550.91;12245079;19;19935;-84
2023/12/29 01:20:58;;;;;;;;;;;12.30;56.70;;;11.05;59.48;100558.47;12247325;19;19927;-83
2023/12/29 01:25:00;;;;;;;;;;;12.30;56.80;;;11.01;59.53;100556.97;12244929;19;19939;-84
2023/12/29 01:29:02;;;;;;;;;;;12.30;56.60;;;10.86;59.63;100524.75;12248351;19;20275;-83
2023/12/29 01:33:04;;;;;;;;;;;12.30;56.60;;;11.03;59.61;100553.31;12245439;19;19926;-84
2023/12/29 01:37:05;;;;;;;;;;;12.30;56.60;;;10.86;59.66;100519.53;12247868;19;19970;-84
2023/12/29 01:41:07;;;;;;;;;;;12.30;56.50;;;10.99;59.66;100536.16;12244994;19;19982;-83
2023/12/29 01:45:22;;;;;;;;;;;12.30;56.60;;;11.02;59.70;100528.13;12245056;19;19907;-83
2023/12/29 01:49:23;;;;;;;;;;;12.40;56.70;;;11.00;59.68;100519.53;12248489;19;19923;-83
2023/12/29 01:53:25;;;;;;;;;;;12.30;56.50;;;10.99;59.56;100515.25;12245792;19;19919;-84
2023/12/29 01:57:27;;;;;;;;;;;12.30;56.50;;;11.00;59.58;100519.53;12248112;19;19911;-83
2023/12/29 02:01:29;;;;;;;;;;;12.30;56.60;;;10.96;59.53;100499.75;12244741;19;19928;-83
2023/12/29 02:05:31;;;;;;;;;;;12.30;56.50;;;10.82;59.46;100471.00;12247799;19;19947;-83
2023/12/29 02:09:34;;;;;;;;;;;12.30;56.70;;;10.99;59.38;100488.28;12246556;19;19922;-83
2023/12/29 02:13:48;;;;;;;;;;;12.30;56.70;;;11.04;59.46;100497.53;12243271;19;19981;-84
2023/12/29 02:17:55;;;;;;;;;;;12.30;56.40;;;10.99;59.49;100478.69;12247794;19;19923;-83
2023/12/29 02:21:56;;;;;;;;;;;12.40;56.70;;;11.05;59.43;100485.31;12243998;19;20334;-84
2023/12/29 02:26:09;;;;;;;;;;;12.30;56.50;;;10.93;59.45;100473.81;12268719;19;19952;-84
2023/12/29 02:30:30;;;;;;;;;;;12.30;56.60;;;11.05;59.48;100491.38;12269740;19;19922;-83
2023/12/29 02:34:32;;;;;;;;;;;12.30;56.60;;;10.98;59.46;100453.47;12266601;19;20344;-83
2023/12/29 02:38:34;;;;;;;;;;;12.30;56.50;;;11.01;59.56;100455.88;12269203;19;19915;-84
2023/12/29 02:42:36;;;;;;;;;;;12.30;56.50;;;10.98;59.47;100466.53;12267886;19;19915;-84
2023/12/29 02:46:37;;;;;;;;;;;12.30;56.60;;;11.03;59.58;100474.94;12268722;19;20399;-84
2023/12/29 02:50:39;;;;;;;;;;;12.30;56.60;;;11.03;59.63;100469.72;12268295;19;19930;-83
2023/12/29 02:54:41;;;;;;;;;;;12.30;56.60;;;11.02;59.47;100454.13;12267416;19;19911;-84
2023/12/29 02:58:45;;;;;;;;;;;12.30;56.60;;;10.98;59.56;100434.34;12268915;19;19995;-84
2023/12/29 03:02:47;;;;;;;;;;;12.30;56.50;;;10.98;59.53;100434.34;12265961;19;19931;-84
2023/12/29 03:06:49;;;;;;;;;;;12.30;56.50;;;10.99;59.37;100428.19;12266097;19;19922;-84
2023/12/29 03:10:50;;;;;;;;;;;12.30;56.50;;;10.92;59.47;100419.06;12267598;19;19911;-84
2023/12/29 03:14:52;;;;;;;;;;;12.30;56.50;;;10.86;59.34;100407.22;12263082;19;19911;-84
2023/12/29 03:18:53;;;;;;;;;;;12.30;56.50;;;10.92;59.56;100421.66;12267480;19;19911;-84
2023/12/29 03:22:55;;;;;;;;;;;12.20;56.50;;;10.78;59.43;100409.47;12264096;19;20304;-84
2023/12/29 03:26:56;;;;;;;;;;;12.20;56.50;;;10.81;59.37;100411.88;12267662;19;19919;-84
2023/12/29 03:30:58;;;;;;;;;;;12.20;56.60;;;10.90;59.58;100418.31;12265268;19;19919;-84
2023/12/29 03:34:59;;;;;;;;;;;12.10;56.50;;;10.86;59.49;100409.81;12255395;19;19911;-84
2023/12/29 03:39:02;;;;;;;;;;;12.10;56.50;;;10.87;59.38;100406.28;12252414;19;20246;-84
2023/12/29 03:43:04;;;;;;;;;;;12.20;56.30;;;10.83;59.38;100399.56;12253230;19;20246;-84
2023/12/29 03:47:05;;;;;;;;;;;12.10;56.30;;;10.87;59.37;100414.09;12254668;19;19918;-84
2023/12/29 03:51:07;;;;;;;;;;;12.10;56.40;;;10.84;59.31;100404.69;12255203;19;21359;-84
2023/12/29 03:55:10;;;;;;;;;;;12.20;56.50;;;10.80;59.33;100391.91;12251028;19;19919;-84
2023/12/29 03:59:12;;;;;;;;;;;12.10;56.50;;;10.82;59.32;100388.25;12252490;19;19919;-84
2023/12/29 04:03:15;;;;;;;;;;;12.20;56.70;;;10.89;59.46;100383.50;12251663;19;19919;-84
2023/12/29 04:07:16;;;;;;;;;;;12.10;56.50;;;10.90;59.46;100403.47;12253921;19;19919;-84
2023/12/29 04:11:18;;;;;;;;;;;12.20;56.60;;;10.83;59.31;100389.97;12253443;19;19919;-84
2023/12/29 04:15:19;;;;;;;;;;;12.10;56.50;;;10.71;59.38;100358.53;12251752;19;19914;-84
2023/12/29 04:19:21;;;;;;;;;;;12.10;56.60;;;10.87;59.29;100374.91;12253907;19;19974;-84
2023/12/29 04:23:23;;;;;;;;;;;12.10;56.30;;;10.91;59.32;100378.19;12249921;19;19935;-84
2023/12/29 04:27:25;;;;;;;;;;;12.20;56.60;;;10.90;59.50;100372.13;12254464;19;19915;-84
2023/12/29 04:31:27;;;;;;;;;;;12.20;56.90;;;10.82;59.51;100348.25;12252031;19;19918;-84
2023/12/29 04:35:29;;;;;;;;;;;12.20;56.60;;;10.89;59.46;100352.16;12252097;19;20326;-84
2023/12/29 04:39:31;;;;;;;;;;;12.20;56.60;;;10.86;59.40;100344.53;12251189;19;19923;-83
2023/12/29 04:43:33;;;;;;;;;;;12.20;56.30;;;10.93;59.30;100360.63;12249318;19;19919;-84
2023/12/29 04:47:34;;;;;;;;;;;12.20;56.40;;;10.93;59.45;100363.25;12251884;19;19949;-83
2023/12/29 04:51:36;;;;;;;;;;;12.20;56.60;;;10.84;59.42;100355.06;12252364;19;19946;-84
2023/12/29 04:55:38;;;;;;;;;;;12.20;56.60;;;10.94;59.41;100354.50;12252091;19;19948;-84
2023/12/29 04:59:40;;;;;;;;;;;12.20;56.50;;;10.88;59.46;100332.19;12252100;19;19918;-84
2023/12/29 05:03:41;;;;;;;;;;;12.20;56.60;;;10.95;59.42;100345.72;12248416;19;19918;-84
2023/12/29 05:07:43;;;;;;;;;;;12.20;56.60;;;10.92;59.46;100331.06;12251800;19;19926;-84
2023/12/29 05:11:45;;;;;;;;;;;12.20;56.60;;;10.96;59.48;100332.53;12250641;19;19923;-84
2023/12/29 05:15:47;;;;;;;;;;;12.20;56.60;;;10.97;59.51;100333.41;12251104;19;19940;-84
2023/12/29 05:19:49;;;;;;;;;;;12.30;56.50;;;10.98;59.37;100328.06;12248587;19;19919;-84
2023/12/29 05:23:50;;;;;;;;;;;12.20;56.60;;;10.96;59.39;100324.69;12249230;19;19915;-84
2023/12/29 05:27:52;;;;;;;;;;;12.30;56.60;;;10.86;59.44;100302.72;12248852;19;19922;-84
2023/12/29 05:31:53;;;;;;;;;;;12.30;56.70;;;11.02;59.44;100334.78;12244673;19;19926;-84
2023/12/29 05:35:55;;;;;;;;;;;12.30;56.70;;;11.05;59.35;100331.97;12249455;19;19928;-84
2023/12/29 05:39:57;;;;;;;;;;;12.30;56.70;;;10.97;59.41;100300.28;12248074;19;20641;-84
2023/12/29 05:44:00;;;;;;;;;;;12.30;56.70;;;10.85;59.32;100286.22;12243718;19;20290;-84
2023/12/29 05:48:02;;;;;;;;;;;12.40;56.70;;;11.09;59.31;100322.16;12249181;19;20272;-84
2023/12/29 05:52:07;;;;;;;;;;;12.40;56.70;;;11.08;59.39;100312.66;12244983;19;19922;-84
2023/12/29 05:56:14;;;;;;;;;;;12.40;56.60;;;10.90;59.51;100275.47;12243503;19;20390;-83
2023/12/29 06:00:16;;;;;;;;;;;12.50;56.50;;;11.16;59.36;100318.22;12244019;19;19929;-84
2023/12/29 06:04:17;;;;;;;;;;;12.50;56.50;;;11.21;59.29;100315.31;12244471;19;19982;-84
2023/12/29 06:08:19;;;;;;;;;;;12.50;56.40;;;11.20;59.40;100326.69;12246820;19;19925;-84
2023/12/29 06:12:21;;;;;;;;;;;12.50;56.40;;;11.23;59.33;100319.50;12244979;19;19915;-84
2023/12/29 06:16:24;;;;;;;;;;;12.60;56.50;;;11.17;59.50;100300.75;12246634;19;19926;-84
2023/12/29 06:20:26;;;;;;;;;;;12.60;56.60;;;11.20;59.43;100284.88;12245512;19;19914;-84
2023/12/29 06:24:28;;;;;;;;;;;12.60;56.10;;;11.23;59.44;100285.53;12243364;19;19922;-84
2023/12/29 06:28:30;;;;;;;;;;;12.60;56.30;;;11.26;59.47;100290.56;12245909;19;19922;-84
2023/12/29 06:32:32;;;;;;;;;;;12.60;56.20;;;11.27;59.42;100281.78;12245705;19;19919;-84
2023/12/29 06:36:33;;;;;;;;;;;12.50;56.00;;;11.29;59.45;100269.44;12245795;19;19918;-84
2023/12/29 06:40:35;;;;;;;;;;;12.60;56.10;;;11.35;59.43;100277.81;12245538;19;20254;-84
2023/12/29 06:44:37;;;;;;;;;;;12.70;56.10;;;11.36;59.30;100274.25;12245209;19;20310;-84
2023/12/29 06:48:39;;;;;;;;;;;12.70;56.40;;;11.43;59.30;100314.75;12244610;19;20348;-84
2023/12/29 06:52:40;;;;;;;;;;;12.70;56.10;;;11.42;59.58;100326.13;12245143;19;19919;-86
2023/12/29 06:56:42;;;;;;;;;;;12.80;56.10;;;11.51;59.24;100344.69;12246204;19;19927;-83
2023/12/29 07:00:44;;;;;;;;;;;12.80;55.80;;;11.55;59.27;100334.03;12245099;19;19925;-86
2023/12/29 07:04:45;;;;;;;;;;;12.80;56.20;;;11.60;59.26;100343.25;12242385;19;19922;-83
2023/12/29 07:08:47;;;;;;;;;;;12.90;55.80;;;11.63;59.28;100334.38;12245423;19;19956;-83
2023/12/29 07:12:49;;;;;;;;;;;12.90;56.10;;;11.71;59.41;100332.06;12257554;19;19986;-82
2023/12/29 07:16:50;;;;;;;;;;;12.90;56.10;;;11.73;59.38;100328.41;12256816;19;20611;-83
2023/12/29 07:20:52;;;;;;;;;;;13.00;56.50;;;11.54;59.33;100304.44;12255321;19;19907;-85
2023/12/29 07:24:54;;;;;;;;;;;13.00;56.20;;;11.63;59.34;100313.44;12251502;19;19926;-84
2023/12/29 07:28:56;;;;;;;;;;;13.10;56.50;;;11.64;59.32;100302.06;12256090;19;19975;-84
2023/12/29 07:32:58;;;;;;;;;;;13.10;55.70;;;11.74;59.33;100311.78;12254284;19;20269;-84
2023/12/29 07:37:00;;;;;;;;;;;13.20;56.10;;;11.85;59.35;100316.28;12256618;19;20717;-83
2023/12/29 07:41:01;;;;;;;;;;;13.20;56.00;;;11.92;59.30;100332.47;12253392;19;19927;-84
2023/12/29 07:45:04;;;;;;;;;;;13.20;56.10;;;11.84;59.19;100314.63;12253975;19;19943;-84
2023/12/29 07:49:05;;;;;;;;;;;13.20;56.10;;;11.89;59.20;100315.19;12255589;19;19951;-84
2023/12/29 07:53:07;;;;;;;;;;;13.30;55.80;;;11.95;59.25;100319.16;12247306;19;19915;-85
2023/12/29 07:57:08;;;;;;;;;;;13.30;55.50;;;12.00;59.13;100329.34;12257341;19;20266;-84
2023/12/29 08:01:10;;;;;;;;;;;13.30;56.00;;;12.00;59.26;100334.56;12253709;19;19919;-84
2023/12/29 08:05:11;;;;;;;;;;;13.30;56.10;;;11.95;59.29;100333.09;12244080;19;19922;-84
2023/12/29 08:09:12;;;;;;;;;;;13.40;56.00;;;11.97;59.19;100329.53;12250367;19;19922;-85
2023/12/29 08:13:14;;;;;;;;;;;13.40;56.10;;;11.97;59.15;100319.91;12250601;19;19990;-84
2023/12/29 08:17:15;;;;;;;;;;;13.40;55.70;;;12.00;59.14;100343.25;12246620;19;20557;-84
2023/12/29 08:21:20;;;;;;;;;;;13.40;55.90;;;11.98;59.21;100332.03;12249646;19;19930;-84
2023/12/29 08:25:21;;;;;;;;;;;13.40;55.80;;;12.00;59.17;100345.88;12254856;19;20003;-84
2023/12/29 08:29:25;;;;;;;;;;;13.40;55.80;;;12.08;59.09;100359.28;12251196;19;19926;-84
2023/12/29 08:33:27;;;;;;;;;;;13.40;55.80;;;12.07;59.04;100351.50;12251422;19;19918;-85
2023/12/29 08:37:28;;;;;;;;;;;13.50;55.90;;;12.08;59.03;100343.56;12253486;19;19917;-84
2023/12/29 08:41:30;;;;;;;;;;;13.40;55.60;;;11.82;59.13;100292.94;12250987;19;20256;-83
2023/12/29 08:45:32;;;;;;;;;;;13.40;55.60;;;12.12;59.22;100341.56;12253425;19;19922;-85
2023/12/29 08:49:35;;;;;;;;;;;13.50;55.90;;;12.14;59.15;100344.94;12254161;19;19910;-83
2023/12/29 08:53:36;;;;;;;;;;;13.50;56.00;;;12.12;59.18;100346.81;12244081;19;19975;-84
2023/12/29 08:57:38;;;;;;;;;;;13.50;56.00;;;12.21;59.07;100368.94;12254347;19;19918;-84
2023/12/29 09:01:39;;;;;;;;;;;13.50;55.90;;;12.19;59.00;100361.16;12251112;19;20257;-84
2023/12/29 09:05:41;;;;;;;;;;;13.50;56.00;;;12.23;59.13;100360.00;12251470;19;20337;-87
2023/12/29 09:09:43;;;;;;;;;;;13.70;56.10;;;12.24;59.02;100359.09;12252124;19;20337;-85
2023/12/29 09:13:44;;;;;;;;;;;13.50;56.20;;;12.23;59.10;100346.91;12249713;19;19915;-85
2023/12/29 09:17:46;;;;;;;;;;;13.50;55.70;;;12.18;58.97;100355.09;12252660;19;20369;-84
2023/12/29 09:21:47;;;;;;;;;;;13.60;55.70;;;12.28;59.07;100378.03;12249180;19;19911;-84
2023/12/29 09:25:48;;;;;;;;;;;13.50;56.00;;;12.25;59.05;100354.69;12253423;19;20294;-84
2023/12/29 09:29:50;;;;;;;;;;;13.60;55.90;;;12.25;59.01;100362.53;12252561;19;19915;-85
2023/12/29 09:33:51;;;;;;;;;;;13.60;55.80;;;12.34;59.09;100381.09;12246563;19;19915;-84
2023/12/29 09:37:53;;;;;;;;;;;13.60;56.00;;;12.16;59.00;100346.50;12251337;19;19919;-84
2023/12/29 09:42:03;;;;;;;;;;;13.60;56.10;;;12.30;59.00;100353.41;12249072;19;19906;-85
2023/12/29 09:46:06;;;;;;;;;;;13.70;56.00;;;12.35;59.00;100351.31;12248834;19;20296;-84
2023/12/29 09:50:10;;;;;;;;;;;13.70;55.90;;;12.47;59.05;100369.75;12250101;19;19923;-84
2023/12/29 09:54:13;;;;;;;;;;;13.70;55.60;;;12.38;59.03;100340.63;12248244;19;19970;-85
2023/12/29 09:58:15;;;;;;;;;;;13.80;56.10;;;12.49;59.08;100346.91;12250078;19;19923;-84
2023/12/29 10:02:17;;;;;;;;;;;13.80;56.00;;;12.47;58.96;100333.09;12247572;19;19923;-84
2023/12/29 10:06:24;;;;;;;;;;;13.90;56.00;;;12.52;59.09;100337.06;12250611;19;20339;-85
2023/12/29 10:10:26;;;;;;;;;;;13.90;56.00;;;12.74;58.92;100367.00;12247986;19;19995;-84
2023/12/29 10:14:37;;;;;;;;;;;14.00;55.90;;;12.72;59.05;100355.78;12245266;19;19919;-84
2023/12/29 10:19:00;;;;;;;;;;;14.00;55.60;;;12.78;59.10;100337.84;12241640;19;19986;-84
2023/12/29 10:23:31;;;;;;;;;;;14.10;55.90;;;12.89;58.72;100350.19;12245249;19;19907;-84
2023/12/29 10:27:33;;;;;;;;;;;14.10;55.40;;;12.87;59.04;100332.91;12246491;19;19938;-84
2023/12/29 10:31:34;;;;;;;;;;;14.20;55.20;;;12.80;58.88;100325.50;12245877;19;19915;-84
2023/12/29 10:35:38;;;;;;;;;;;14.30;55.70;;;12.95;58.97;100317.47;12247390;19;19919;-84
2023/12/29 10:39:57;;;;;;;;;;;14.30;55.90;;;13.05;59.02;100319.31;12245266;19;19922;-85
2023/12/29 10:44:05;;;;;;;;;;;14.40;55.80;;;13.20;59.01;100324.41;12248066;19;19903;-84
2023/12/29 10:48:07;;;;;;;;;;;14.40;55.90;;;13.26;58.96;100319.59;12258718;19;19911;-84
2023/12/29 10:52:16;;;;;;;;;;;14.50;56.10;;;13.30;58.98;100314.13;12256838;19;19926;-84
2023/12/29 10:56:20;;;;;;;;;;;14.60;56.50;;;13.33;58.89;100322.59;12256947;19;19995;-84
2023/12/29 11:00:28;;;;;;;;;;;14.60;56.00;;;13.36;58.85;100332.03;12257014;19;19926;-84
2023/12/29 11:04:30;;;;;;;;;;;14.70;55.70;;;13.36;58.80;100313.66;12254066;19;19915;-84
2023/12/29 11:08:35;;;;;;;;;;;14.70;56.00;;;13.45;58.88;100332.19;12256630;19;19923;-84
2023/12/29 11:12:37;;;;;;;;;;;14.70;55.90;;;13.53;58.87;100349.13;12256294;19;19934;-84
2023/12/29 11:16:39;;;;;;;;;;;14.80;55.80;;;13.45;58.94;100328.75;12257678;19;19925;-84
2023/12/29 11:20:44;;;;;;;;;;;14.90;56.00;;;13.58;58.86;100345.22;12253302;19;19925;-84
2023/12/29 11:24:47;;;;;;;;;;;14.90;56.10;;;13.51;58.97;100317.78;12253174;19;20325;-84
2023/12/29 11:28:49;;;;;;;;;;;14.90;56.00;;;13.57;58.82;100338.31;12257716;19;19917;-84
2023/12/29 11:33:02;;;;;;;;;;;14.90;55.80;;;13.65;58.84;100348.25;12254264;19;19918;-84
2023/12/29 11:37:33;;;;;;;;;;;15.00;55.00;;;13.63;58.63;100329.97;12255930;19;20373;-85
2023/12/29 11:41:46;;;;;;;;;;;15.00;55.60;;;13.64;58.76;100323.81;12251928;19;19915;-85
2023/12/29 11:45:47;;;;;;;;;;;15.00;55.70;;;13.65;58.71;100316.75;12253363;19;19927;-85
2023/12/29 11:50:01;;;;;;;;;;;14.90;55.50;;;13.65;58.70;100312.34;12256103;19;19919;-85
2023/12/29 11:54:04;;;;;;;;;;;14.90;55.30;;;13.43;58.72;100280.78;12252612;19;19911;-84
2023/12/29 11:58:28;;;;;;;;;;;15.00;54.60;;;13.57;58.74;100293.72;12252736;19;20021;-84
2023/12/29 12:02:29;;;;;;;;;;;15.00;55.50;;;13.64;58.72;100297.56;12261402;19;19923;-84
2023/12/29 12:06:40;;;;;;;;;;;14.90;55.50;;;13.66;58.64;100298.28;12254652;19;19915;-85
2023/12/29 12:10:42;;;;;;;;;;;15.00;55.80;;;13.68;58.59;100288.50;12254002;19;19923;-84
2023/12/29 12:14:51;;;;;;;;;;;15.00;55.50;;;13.62;58.63;100283.72;12251092;19;19948;-84
2023/12/29 12:18:52;;;;;;;;;;;15.00;55.60;;;13.68;58.61;100296.38;12259068;19;19922;-85
2023/12/29 12:23:00;;;;;;;;;;;15.00;55.80;;;13.61;58.57;100286.44;12251620;19;19970;-85
2023/12/29 12:27:02;;;;;;;;;;;15.00;55.90;;;13.68;58.48;100285.03;12252426;19;20261;-85
2023/12/29 12:31:08;;;;;;;;;;;15.00;55.80;;;13.72;58.67;100297.81;12252682;19;19911;-85
2023/12/29 12:35:16;;;;;;;;;;;15.00;55.90;;;13.75;58.60;100316.91;12248091;19;19926;-84
2023/12/29 12:39:18;;;;;;;;;;;15.00;55.60;;;13.76;58.58;100303.66;12254331;19;19922;-84
2023/12/29 12:43:24;;;;;;;;;;;15.00;55.80;;;13.70;58.60;100285.75;12250671;19;19911;-86
2023/12/29 12:47:41;;;;;;;;;;;15.00;55.70;;;13.70;58.54;100288.38;12253142;19;19919;-85
2023/12/29 12:51:43;;;;;;;;;;;15.00;55.50;;;13.65;58.38;100280.84;12248171;19;19986;-85
2023/12/29 12:55:52;;;;;;;;;;;15.00;55.40;;;13.70;58.57;100285.75;12250622;19;19922;-85
2023/12/29 12:59:54;;;;;;;;;;;15.00;55.50;;;13.67;58.49;100273.72;12250866;19;20333;-86
2023/12/29 13:03:58;;;;;;;;;;;14.90;55.40;;;13.67;58.49;100281.59;12248139;19;19915;-85
2023/12/29 13:07:59;;;;;;;;;;;14.90;54.50;;;13.45;58.61;100231.69;12249868;19;19986;-85
2023/12/29 13:12:11;;;;;;;;;;;14.90;55.20;;;13.65;58.47;100257.25;12251485;19;19934;-86
2023/12/29 13:16:13;;;;;;;;;;;15.00;55.40;;;13.59;58.45;100244.59;12251794;19;19915;-85
2023/12/29 13:20:15;;;;;;;;;;;14.90;54.80;;;13.62;58.44;100254.84;12249971;19;19907;-85
2023/12/29 13:24:17;;;;;;;;;;;15.00;55.60;;;13.65;58.51;100254.63;12249095;19;19976;-85
2023/12/29 13:28:19;;;;;;;;;;;14.90;55.60;;;13.67;58.46;100262.38;12248219;19;19922;-85
2023/12/29 13:32:28;;;;;;;;;;;15.00;55.30;;;13.54;58.19;100240.66;12252215;19;20393;-85
2023/12/29 13:36:48;;;;;;;;;;;14.90;55.40;;;13.61;58.29;100247.09;12252006;19;19926;-85
2023/12/29 13:41:00;;;;;;;;;;;14.90;55.30;;;13.56;58.40;100212.53;12251420;19;19925;-85
2023/12/29 13:45:04;;;;;;;;;;;14.90;55.40;;;13.68;58.38;100241.25;12248776;19;19915;-86
2023/12/29 13:49:06;;;;;;;;;;;14.90;55.60;;;13.61;58.39;100247.09;12252310;19;19918;-85
2023/12/29 13:53:07;;;;;;;;;;;14.90;55.50;;;13.67;58.40;100246.63;12249777;19;20312;-85
2023/12/29 13:57:09;;;;;;;;;;;14.90;55.50;;;13.69;58.30;100248.19;12253082;19;19950;-86
2023/12/29 14:01:10;;;;;;;;;;;15.00;55.50;;;13.59;58.28;100228.84;12246681;19;20352;-85
2023/12/29 14:05:46;;;;;;;;;;;15.00;55.60;;;13.69;58.31;100240.31;12248370;19;19932;-85
2023/12/29 14:09:47;;;;;;;;;;;15.00;55.10;;;13.71;58.36;100246.28;12249583;19;20505;-85
2023/12/29 14:13:49;;;;;;;;;;;15.00;55.60;;;13.73;58.30;100261.91;12245683;19;19911;-85
2023/12/29 14:17:56;;;;;;;;;;;15.00;55.50;;;13.79;58.22;100234.38;12247691;19;19910;-85
2023/12/29 14:21:58;;;;;;;;;;;15.00;55.00;;;13.72;58.27;100240.09;12246940;19;19919;-85
2023/12/29 14:26:03;;;;;;;;;;;15.00;54.80;;;13.77;58.15;100265.13;12248085;19;19906;-85
2023/12/29 14:30:18;;;;;;;;;;;15.00;55.70;;;13.82;58.32;100274.31;12248928;19;19915;-85
2023/12/29 14:34:19;;;;;;;;;;;15.00;55.50;;;13.73;58.33;100260.13;12248157;19;20304;-85
2023/12/29 14:38:22;;;;;;;;;;;15.10;55.50;;;13.79;58.26;100260.59;12247074;19;19922;-85
2023/12/29 14:42:24;;;;;;;;;;;15.00;55.70;;;13.65;58.14;100244.13;12244563;19;19934;-85
2023/12/29 14:46:25;;;;;;;;;;;15.10;56.00;;;13.83;58.26;100262.06;12245658;19;20326;-85
2023/12/29 14:50:27;;;;;;;;;;;15.10;55.80;;;13.84;58.23;100268.97;12246199;19;19919;-85
2023/12/29 14:54:28;;;;;;;;;;;15.10;55.80;;;13.79;58.18;100256.19;12245277;19;19967;-85
2023/12/29 14:58:32;;;;;;;;;;;15.10;55.70;;;13.85;58.21;100260.13;12247802;19;20269;-84
2023/12/29 15:02:33;;;;;;;;;;;15.10;55.60;;;13.84;58.22;100242.72;12244074;19;20596;-85
2023/12/29 15:06:35;;;;;;;;;;;15.10;55.70;;;13.88;58.28;100275.63;12249741;19;19914;-87
2023/12/29 15:10:36;;;;;;;;;;;15.10;55.20;;;13.87;58.23;100263.47;12251044;19;19915;-85
2023/12/29 15:14:38;;;;;;;;;;;15.10;55.30;;;13.78;58.39;100274.69;12245106;19;19922;-85
2023/12/29 15:18:39;;;;;;;;;;;15.10;55.20;;;13.85;58.08;100281.13;12245399;19;19919;-85
2023/12/29 15:22:43;;;;;;;;;;;15.10;55.30;;;13.81;58.18;100269.22;12243174;19;19918;-85
2023/12/29 15:26:44;;;;;;;;;;;15.10;55.70;;;13.82;58.19;100260.38;12247397;19;19907;-85
2023/12/29 15:30:46;;;;;;;;;;;15.10;55.40;;;13.65;58.11;100244.13;12248979;19;20344;-85
2023/12/29 15:34:47;;;;;;;;;;;15.10;55.10;;;13.80;58.27;100271.00;12251836;19;19919;-85
2023/12/29 15:38:52;;;;;;;;;;;15.10;55.50;;;13.80;58.13;100268.38;12257505;19;19915;-85
2023/12/29 15:42:56;;;;;;;;;;;15.00;55.60;;;13.69;58.25;100253.44;12254743;19;19915;-85
2023/12/29 15:46:57;;;;;;;;;;;15.00;55.70;;;13.81;58.09;100263.97;12255572;19;19922;-85
2023/12/29 15:50:59;;;;;;;;;;;15.00;55.10;;;13.77;58.17;100271.25;12257576;19;19919;-85
2023/12/29 15:55:01;;;;;;;;;;;15.00;55.70;;;13.58;58.10;100231.56;12251516;19;19950;-85
2023/12/29 15:59:02;;;;;;;;;;;15.00;55.70;;;13.65;58.12;100253.78;12256543;19;20344;-85
2023/12/29 16:03:04;;;;;;;;;;;15.00;55.90;;;13.71;58.15;100269.88;12251861;19;20024;-85
2023/12/29 16:07:06;;;;;;;;;;;15.00;55.10;;;13.75;58.26;100261.81;12255208;19;20329;-85
2023/12/29 16:11:07;;;;;;;;;;;15.00;55.60;;;13.58;58.14;100250.78;12252735;19;19919;-85
2023/12/29 16:15:09;;;;;;;;;;;15.00;55.70;;;13.66;58.12;100265.94;12252945;19;20636;-85
2023/12/29 16:19:10;;;;;;;;;;;14.90;55.70;;;13.75;58.11;100288.06;12255351;19;19919;-84
2023/12/29 16:23:12;;;;;;;;;;;14.90;55.90;;;13.71;58.03;100280.38;12252113;19;19926;-85
2023/12/29 16:27:14;;;;;;;;;;;14.90;55.80;;;13.71;58.07;100275.13;12254540;19;19918;-85
2023/12/29 16:31:15;;;;;;;;;;;14.90;55.90;;;13.70;58.12;100264.78;12252097;19;19938;-84
2023/12/29 16:35:17;;;;;;;;;;;14.90;55.50;;;13.61;58.01;100260.19;12256218;19;19935;-85
2023/12/29 16:39:18;;;;;;;;;;;14.90;55.80;;;13.67;58.07;100284.22;12254758;19;19927;-85
2023/12/29 16:43:20;;;;;;;;;;;14.90;55.80;;;13.56;57.96;100259.75;12250753;19;20234;-85
2023/12/29 16:47:21;;;;;;;;;;;14.90;55.90;;;13.59;58.03;100262.97;12255967;19;20282;-85
2023/12/29 16:51:23;;;;;;;;;;;14.90;55.80;;;13.53;57.95;100252.94;12252952;19;19911;-85
2023/12/29 16:55:24;;;;;;;;;;;14.90;55.90;;;13.59;58.07;100252.47;12252366;19;20270;-85
2023/12/29 16:59:26;;;;;;;;;;;14.80;56.30;;;13.61;58.04;100249.72;12256392;19;19975;-85
2023/12/29 17:03:30;;;;;;;;;;;14.80;55.90;;;13.56;57.96;100241.38;12250627;19;19991;-85
2023/12/29 17:07:32;;;;;;;;;;;14.80;56.00;;;13.58;57.94;100248.16;12255966;19;19982;-85
2023/12/29 17:11:33;;;;;;;;;;;14.80;55.90;;;13.48;58.00;100239.31;12251982;19;19915;-85
2023/12/29 17:15:34;;;;;;;;;;;14.70;55.90;;;13.59;57.98;100249.84;12255570;19;20301;-84
2023/12/29 17:19:36;;;;;;;;;;;14.80;56.10;;;13.46;58.15;100228.09;12254959;19;19927;-85
2023/12/29 17:23:37;;;;;;;;;;;14.80;56.00;;;13.56;57.97;100260.56;12253726;19;20336;-85
2023/12/29 17:27:39;;;;;;;;;;;14.70;56.00;;;13.41;57.99;100219.75;12253390;19;19914;-85
2023/12/29 17:31:41;;;;;;;;;;;14.80;56.00;;;13.55;58.06;100243.13;12249551;19;19922;-85
2023/12/29 17:35:42;;;;;;;;;;;14.80;56.00;;;13.53;58.07;100249.44;12257137;19;19919;-85
2023/12/29 17:39:44;;;;;;;;;;;14.80;56.00;;;13.35;58.05;100210.56;12250899;19;20377;-85
2023/12/29 17:43:45;;;;;;;;;;;14.80;56.20;;;13.50;58.04;100227.78;12250951;19;19915;-85
2023/12/29 17:47:47;;;;;;;;;;;14.80;56.10;;;13.57;58.01;100256.97;12252159;19;19919;-85
2023/12/29 17:51:49;;;;;;;;;;;14.80;56.00;;;13.44;57.87;100258.84;12252904;19;19923;-85
2023/12/29 17:55:51;;;;;;;;;;;14.80;55.90;;;13.56;58.06;100260.56;12250758;19;20317;-85
2023/12/29 17:59:53;;;;;;;;;;;14.80;56.30;;;13.59;57.97;100276.06;12250350;19;19922;-85
2023/12/29 18:03:54;;;;;;;;;;;14.80;56.10;;;13.55;57.80;100277.25;12248860;19;20528;-85
2023/12/29 18:07:56;;;;;;;;;;;14.80;56.00;;;13.49;58.02;100251.47;12251682;19;19982;-85
2023/12/29 18:11:58;;;;;;;;;;;14.80;56.10;;;13.47;58.03;100256.00;12250041;19;19943;-85